Time;durP1;ratioP1;P1;durP2;ratioP2;P2;SDS_P1;SDS_P2;PMS_P1;PMS_P2;Temp;Humidity;BMP_temperature;BMP_pressure;BME280_temperature;BME280_humidity;BME280_pressure;Samples;Min_cycle;Max_cycle;Signal;HPM_P1;HPM_P2
2021/11/10 00:00:50;;;;;;;26.60;19.80;;;22.90;99.90;;;;;;5050615;28;20033;-68
2021/11/10 00:03:17;;;;;;;26.30;18.33;;;23.00;99.90;;;;;;5049503;28;20086;-71
2021/11/10 00:05:44;;;;;;;28.92;20.83;;;23.10;99.90;;;;;;5051852;28;20028;-70
2021/11/10 00:08:11;;;;;;;29.10;20.38;;;23.10;99.90;;;;;;5050079;28;20024;-69
2021/11/10 00:10:38;;;;;;;24.80;19.85;;;23.00;99.90;;;;;;5047486;28;20025;-68
2021/11/10 00:13:17;;;;;;;31.33;24.38;;;23.20;99.90;;;;;;5049733;28;20025;-69
2021/11/10 00:15:49;;;;;;;25.20;19.05;;;23.00;99.90;;;;;;5049931;28;20074;-69
2021/11/10 00:18:17;;;;;;;23.52;18.48;;;23.10;99.90;;;;;;5050690;28;20060;-69
2021/11/10 00:20:45;;;;;;;24.15;17.80;;;23.20;99.90;;;;;;5050961;28;20505;-70
2021/11/10 00:23:13;;;;;;;22.42;16.90;;;23.30;99.90;;;;;;5050067;28;20029;-69
2021/11/10 00:25:40;;;;;;;24.80;19.05;;;23.30;99.90;;;;;;5051289;28;20017;-70
2021/11/10 00:28:08;;;;;;;23.75;16.55;;;22.90;99.90;;;;;;5050976;28;20027;-70
2021/11/10 00:30:35;;;;;;;27.42;18.33;;;22.80;99.90;;;;;;5035228;28;20451;-68
2021/11/10 00:33:02;;;;;;;23.33;17.67;;;22.70;99.90;;;;;;5049379;28;20063;-69
2021/11/10 00:35:30;;;;;;;27.85;20.45;;;22.80;99.90;;;;;;5051169;28;20029;-69
2021/11/10 00:37:57;;;;;;;27.15;18.65;;;22.80;99.90;;;;;;5050513;28;20770;-71
2021/11/10 00:40:24;;;;;;;21.13;16.85;;;22.90;99.90;;;;;;5048157;28;20041;-70
2021/11/10 00:42:51;;;;;;;25.08;18.23;;;22.80;99.90;;;;;;5050670;28;20106;-68
2021/11/10 00:45:18;;;;;;;25.08;18.40;;;22.80;99.90;;;;;;5050819;28;20017;-69
2021/11/10 00:47:45;;;;;;;25.80;18.92;;;22.70;99.90;;;;;;5052972;28;20048;-70
2021/11/10 00:50:12;;;;;;;26.10;17.67;;;22.60;99.90;;;;;;5051328;28;20085;-71
2021/11/10 00:52:39;;;;;;;23.42;17.42;;;22.40;99.90;;;;;;5050121;28;20107;-70
2021/11/10 00:55:07;;;;;;;23.60;17.90;;;22.20;99.90;;;;;;5050390;28;20056;-72
2021/11/10 00:57:34;;;;;;;24.77;19.02;;;22.10;99.90;;;;;;5050527;28;20048;-70
2021/11/10 01:00:01;;;;;;;28.52;19.20;;;22.10;99.90;;;;;;5034539;28;20040;-71
2021/11/10 01:02:27;;;;;;;27.77;19.45;;;22.00;99.90;;;;;;5050697;28;20066;-71
2021/11/10 01:04:54;;;;;;;20.77;16.95;;;21.90;99.90;;;;;;5050369;28;20154;-69
2021/11/10 01:07:21;;;;;;;23.42;16.42;;;21.90;99.90;;;;;;5032709;28;20032;-71
2021/11/10 01:09:54;;;;;;;21.48;16.20;;;21.80;99.90;;;;;;5052230;28;20013;-70
2021/11/10 01:12:21;;;;;;;22.38;16.83;;;21.60;99.90;;;;;;5050690;28;20401;-68
2021/11/10 01:14:48;;;;;;;25.25;17.08;;;21.50;99.90;;;;;;5048164;28;20029;-67
2021/11/10 01:17:15;;;;;;;25.33;16.05;;;21.40;99.90;;;;;;5051818;28;20021;-70
2021/11/10 01:19:42;;;;;;;22.50;16.92;;;21.50;99.90;;;;;;5047880;28;20047;-69
2021/11/10 01:22:10;;;;;;;22.42;17.05;;;21.40;99.90;;;;;;5049739;28;20029;-71
2021/11/10 01:24:37;;;;;;;23.77;17.65;;;21.40;99.90;;;;;;5050396;28;20021;-71
2021/11/10 01:27:04;;;;;;;23.17;17.13;;;21.30;99.90;;;;;;5047734;28;20372;-70
2021/11/10 01:29:31;;;;;;;27.23;17.25;;;21.30;99.90;;;;;;5050508;28;20025;-69
2021/11/10 01:31:58;;;;;;;27.98;19.08;;;21.20;99.90;;;;;;5049957;28;20029;-68
2021/11/10 01:34:25;;;;;;;26.80;18.27;;;21.10;99.90;;;;;;5050362;28;20418;-69
2021/11/10 01:36:52;;;;;;;28.52;17.48;;;21.10;99.90;;;;;;5051874;28;20029;-70
2021/11/10 01:39:19;;;;;;;26.65;18.77;;;21.10;99.90;;;;;;5049110;28;20075;-69
2021/11/10 01:41:51;;;;;;;30.52;19.50;;;21.00;99.90;;;;;;5029488;28;20029;-70
2021/11/10 01:44:26;;;;;;;31.90;19.30;;;20.80;99.90;;;;;;5048756;28;20025;-70
2021/11/10 01:46:57;;;;;;;24.30;17.52;;;20.70;99.90;;;;;;5051744;28;20117;-69
2021/11/10 01:49:24;;;;;;;29.50;20.33;;;20.60;99.90;;;;;;5045139;28;20036;-68
2021/11/10 01:51:56;;;;;;;33.13;25.23;;;20.70;99.90;;;;;;5050098;28;20324;-69
2021/11/10 01:54:27;;;;;;;29.40;19.60;;;20.70;99.90;;;;;;5052086;28;20053;-66
2021/11/10 01:56:54;;;;;;;32.60;20.85;;;20.80;99.90;;;;;;5051810;28;20029;-69
2021/11/10 01:59:29;;;;;;;28.85;20.27;;;20.70;99.90;;;;;;5049758;28;20056;-66
2021/11/10 02:01:56;;;;;;;23.92;18.13;;;20.70;99.90;;;;;;5048302;28;20141;-66
2021/11/10 02:04:31;;;;;;;31.83;21.13;;;20.70;99.90;;;;;;5052541;28;20108;-65
2021/11/10 02:07:00;;;;;;;31.00;20.63;;;20.70;99.90;;;;;;5049633;28;20660;-68
2021/11/10 02:09:27;;;;;;;28.05;19.80;;;20.90;99.90;;;;;;5047694;28;20229;-68
2021/11/10 02:11:56;;;;;;;30.48;20.73;;;20.90;99.90;;;;;;5050562;28;20158;-65
2021/11/10 02:14:27;;;;;;;27.98;19.63;;;20.80;99.90;;;;;;4347588;28;9999920;-66
2021/11/10 02:16:55;;;;;;;36.78;21.23;;;20.90;99.90;;;;;;5045704;28;20029;-69
2021/11/10 02:19:23;;;;;;;34.40;21.65;;;20.90;99.90;;;;;;5048860;28;20032;-67
2021/11/10 02:21:54;;;;;;;34.15;21.02;;;20.90;99.90;;;;;;5050148;28;20078;-67
2021/11/10 02:24:23;;;;;;;29.45;20.30;;;20.70;99.90;;;;;;5047568;28;20047;-67
2021/11/10 02:26:51;;;;;;;35.78;22.23;;;20.70;99.90;;;;;;5047926;28;20090;-67
2021/11/10 02:29:24;;;;;;;32.08;21.08;;;20.80;99.90;;;;;;5051701;28;20020;-66
2021/11/10 02:31:53;;;;;;;32.75;21.88;;;21.00;99.90;;;;;;5050395;28;20472;-66
2021/11/10 02:34:21;;;;;;;36.83;21.83;;;21.00;99.90;;;;;;5028171;28;20129;-69
2021/11/10 02:36:48;;;;;;;33.00;21.58;;;21.10;99.90;;;;;;5045424;28;20083;-65
2021/11/10 02:39:19;;;;;;;28.48;19.65;;;21.00;99.90;;;;;;5046912;28;20025;-66
2021/11/10 02:41:47;;;;;;;36.67;23.88;;;21.00;99.90;;;;;;5047367;28;20025;-69
2021/11/10 02:44:19;;;;;;;32.28;23.55;;;21.30;99.90;;;;;;5046362;28;20541;-69
2021/11/10 02:46:50;;;;;;;32.47;24.88;;;21.50;99.90;;;;;;5050178;28;20131;-66
2021/11/10 02:49:19;;;;;;;41.17;28.73;;;21.50;99.90;;;;;;5042126;28;20036;-68
2021/11/10 02:52:18;;;;;;;42.83;29.38;;;21.60;99.90;;;;;;5047034;28;20028;-67
2021/11/10 02:54:49;;;;;;;43.88;28.25;;;21.60;99.90;;;;;;5028269;28;20381;-65
2021/11/10 02:57:16;;;;;;;42.88;26.58;;;21.70;99.90;;;;;;5046908;28;20037;-67
2021/11/10 02:59:44;;;;;;;41.17;27.98;;;21.70;99.90;;;;;;5047548;28;20032;-71
2021/11/10 03:02:11;;;;;;;45.67;26.67;;;21.80;99.90;;;;;;5046530;28;20352;-67
2021/11/10 03:04:47;;;;;;;36.60;26.23;;;21.80;99.90;;;;;;5042071;28;20590;-66
2021/11/10 03:07:16;;;;;;;42.10;28.73;;;21.80;99.90;;;;;;5049857;28;20060;-68
2021/11/10 03:09:44;;;;;;;38.13;27.00;;;21.80;99.90;;;;;;5050725;28;20013;-66
2021/11/10 03:12:13;;;;;;;36.88;28.17;;;21.70;99.90;;;;;;5047867;28;20044;-65
2021/11/10 03:14:42;;;;;;;28.95;20.15;;;21.60;99.90;;;;;;5046174;28;20095;-67
2021/11/10 03:17:13;;;;;;;27.90;20.38;;;21.50;99.90;;;;;;5047127;28;20040;-65
2021/11/10 03:19:41;;;;;;;27.98;19.65;;;21.40;99.90;;;;;;5046881;28;20523;-66
2021/11/10 03:22:11;;;;;;;34.63;20.70;;;21.20;99.90;;;;;;5022292;28;20044;-70
2021/11/10 03:24:38;;;;;;;26.58;19.58;;;21.10;99.90;;;;;;5043586;28;20036;-69
2021/11/10 03:27:06;;;;;;;31.02;20.25;;;21.10;99.90;;;;;;5051869;28;20028;-67
2021/11/10 03:29:34;;;;;;;28.17;19.75;;;21.00;99.90;;;;;;5055855;28;20021;-67
2021/11/10 03:32:03;;;;;;;27.65;20.25;;;21.00;99.90;;;;;;5041395;28;20033;-66
2021/11/10 03:34:31;;;;;;;29.23;19.70;;;21.10;99.90;;;;;;5047049;28;20074;-70
2021/11/10 03:36:58;;;;;;;29.48;21.45;;;20.90;99.90;;;;;;5046380;28;20029;-71
2021/11/10 03:39:26;;;;;;;28.52;20.73;;;21.00;99.90;;;;;;5050047;28;20267;-70
2021/11/10 03:41:53;;;;;;;30.60;22.38;;;21.10;99.90;;;;;;5044862;28;20029;-70
2021/11/10 03:44:21;;;;;;;34.38;21.58;;;21.10;99.90;;;;;;5047081;28;20020;-70
2021/11/10 03:46:48;;;;;;;27.85;20.23;;;21.10;99.90;;;;;;5046468;28;20454;-71
2021/11/10 03:49:16;;;;;;;31.75;19.90;;;21.10;99.90;;;;;;5039644;28;20053;-68
2021/11/10 03:51:43;;;;;;;25.45;19.52;;;21.10;99.90;;;;;;5046164;28;20099;-70
2021/11/10 03:54:10;;;;;;;25.80;18.80;;;21.00;99.90;;;;;;5049832;28;20045;-68
2021/11/10 03:56:38;;;;;;;27.08;18.08;;;21.00;99.90;;;;;;5046540;28;20850;-68
2021/11/10 03:59:06;;;;;;;24.08;17.75;;;21.00;99.90;;;;;;5045691;28;20025;-70
2021/11/10 04:01:33;;;;;;;24.00;16.30;;;21.00;99.90;;;;;;5043061;28;20068;-70
2021/11/10 04:04:01;;;;;;;28.52;17.33;;;21.00;99.90;;;;;;5047554;28;20159;-68
2021/11/10 04:06:30;;;;;;;26.92;17.85;;;20.80;99.90;;;;;;5045628;28;20166;-70
2021/11/10 04:08:57;;;;;;;22.85;16.23;;;20.70;99.90;;;;;;5046586;28;20104;-67
2021/11/10 04:11:24;;;;;;;23.65;16.25;;;20.70;99.90;;;;;;5045616;28;20082;-70
2021/11/10 04:13:52;;;;;;;23.55;16.27;;;20.70;99.90;;;;;;5042400;28;20155;-66
2021/11/10 04:16:22;;;;;;;23.40;15.27;;;20.70;99.90;;;;;;5027413;28;20120;-69
2021/11/10 04:18:52;;;;;;;23.17;15.25;;;20.80;99.90;;;;;;5043677;28;20028;-69
2021/11/10 04:21:19;;;;;;;22.33;14.77;;;20.80;99.90;;;;;;5040373;28;20017;-69
2021/11/10 04:23:50;;;;;;;19.30;14.77;;;20.80;99.90;;;;;;5044694;28;20032;-71
2021/11/10 04:26:18;;;;;;;22.45;15.73;;;20.80;99.90;;;;;;5045225;28;20029;-67
2021/11/10 04:28:45;;;;;;;21.75;16.27;;;20.90;99.90;;;;;;5049295;28;20051;-69
2021/11/10 04:31:13;;;;;;;24.98;17.48;;;20.90;99.90;;;;;;5045320;28;20028;-67
2021/11/10 04:33:42;;;;;;;28.25;20.50;;;20.90;99.90;;;;;;5045810;28;20040;-68
2021/11/10 04:36:09;;;;;;;22.98;18.55;;;20.90;99.90;;;;;;5045687;28;20029;-66
2021/11/10 04:38:37;;;;;;;32.15;19.95;;;20.90;99.90;;;;;;5045521;28;20440;-72
2021/11/10 04:41:04;;;;;;;22.33;18.17;;;21.00;99.90;;;;;;5045362;28;20044;-67
2021/11/10 04:43:31;;;;;;;30.08;18.88;;;21.00;99.90;;;;;;5040470;28;20357;-68
2021/11/10 04:46:15;;;;;;;23.25;17.83;;;21.10;99.90;;;;;;5041855;28;20096;-72
2021/11/10 04:48:42;;;;;;;24.65;18.23;;;21.10;99.90;;;;;;5044780;28;20112;-70
2021/11/10 04:51:11;;;;;;;21.85;17.55;;;21.10;99.90;;;;;;5041916;28;20218;-69
2021/11/10 04:53:42;;;;;;;23.08;17.52;;;21.10;99.90;;;;;;5043782;28;20049;-69
2021/11/10 04:56:09;;;;;;;26.73;20.27;;;21.20;99.90;;;;;;5044923;28;20037;-65
2021/11/10 04:58:37;;;;;;;29.38;20.58;;;21.30;99.90;;;;;;5045794;28;20029;-68
2021/11/10 05:01:04;;;;;;;28.38;20.20;;;21.30;99.90;;;;;;5044741;28;20033;-71
2021/11/10 05:03:32;;;;;;;30.25;21.67;;;21.40;99.90;;;;;;5051443;28;20055;-68
2021/11/10 05:05:59;;;;;;;28.30;19.80;;;21.40;99.90;;;;;;5047226;28;20071;-69
2021/11/10 05:08:26;;;;;;;26.48;20.98;;;21.40;99.90;;;;;;5048893;28;21287;-67
2021/11/10 05:10:52;;;;;;;28.73;21.27;;;21.40;99.90;;;;;;5042928;28;20025;-69
2021/11/10 05:13:20;;;;;;;38.80;24.15;;;21.40;99.90;;;;;;5043536;28;20033;-65
2021/11/10 05:15:47;;;;;;;24.60;19.48;;;21.50;99.90;;;;;;5044132;28;20035;-69
2021/11/10 05:18:14;;;;;;;25.48;19.85;;;21.50;99.90;;;;;;5043518;28;20028;-68
2021/11/10 05:20:44;;;;;;;24.52;19.60;;;21.60;99.90;;;;;;5041741;28;20029;-69
2021/11/10 05:23:11;;;;;;;29.38;20.58;;;21.80;99.90;;;;;;5042860;28;20017;-67
2021/11/10 05:25:38;;;;;;;25.45;19.13;;;21.90;99.90;;;;;;5048451;28;20108;-67
2021/11/10 05:28:05;;;;;;;27.75;21.25;;;22.00;99.90;;;;;;5046527;28;20025;-64
2021/11/10 05:30:32;;;;;;;25.92;20.75;;;22.10;99.90;;;;;;5047713;28;20021;-71
2021/11/10 05:32:59;;;;;;;27.23;21.23;;;22.20;99.90;;;;;;5047083;28;20519;-71
2021/11/10 05:35:28;;;;;;;25.15;19.73;;;22.30;99.90;;;;;;5045961;28;20031;-64
2021/11/10 05:37:54;;;;;;;25.10;22.42;;;22.20;99.90;;;;;;5047347;28;20025;-66
2021/11/10 05:40:22;;;;;;;28.17;20.63;;;22.10;99.90;;;;;;5046474;28;20418;-69
2021/11/10 05:42:49;;;;;;;23.00;20.05;;;22.00;99.90;;;;;;5043143;28;20022;-71
2021/11/10 05:45:16;;;;;;;25.92;18.92;;;21.80;99.90;;;;;;5045491;28;20025;-69
2021/11/10 05:47:43;;;;;;;24.45;20.35;;;21.70;99.90;;;;;;5048272;28;20029;-66
2021/11/10 05:50:12;;;;;;;26.35;19.25;;;21.70;99.90;;;;;;5045246;28;20025;-66
2021/11/10 05:52:41;;;;;;;30.90;21.50;;;21.70;99.90;;;;;;5023139;28;20538;-70
2021/11/10 05:55:09;;;;;;;28.88;19.05;;;21.70;99.90;;;;;;5047744;28;20358;-67
2021/11/10 05:57:39;;;;;;;25.10;20.23;;;21.70;99.90;;;;;;5045653;28;20032;-67
2021/11/10 06:00:10;;;;;;;21.23;18.52;;;21.80;99.90;;;;;;5043610;28;20024;-71
2021/11/10 06:02:37;;;;;;;27.10;18.75;;;21.80;99.90;;;;;;5045965;28;20029;-75
2021/11/10 06:05:04;;;;;;;24.88;20.15;;;21.90;99.90;;;;;;5048101;28;20025;-65
2021/11/10 06:07:31;;;;;;;24.35;19.15;;;22.00;99.90;;;;;;5043461;28;20134;-65
2021/11/10 06:09:58;;;;;;;29.25;19.50;;;22.10;99.90;;;;;;5047130;28;20085;-68
2021/11/10 06:12:25;;;;;;;20.80;17.10;;;22.20;99.90;;;;;;5044059;28;20072;-68
2021/11/10 06:14:52;;;;;;;18.90;16.90;;;22.30;99.90;;;;;;5045385;28;20502;-67
2021/11/10 06:17:19;;;;;;;21.25;16.45;;;22.10;99.90;;;;;;5042915;28;20094;-70
2021/11/10 06:19:46;;;;;;;32.38;18.02;;;22.00;99.90;;;;;;5042957;28;20032;-69
2021/11/10 06:22:13;;;;;;;20.60;16.95;;;21.90;99.90;;;;;;5044461;28;20021;-72
2021/11/10 06:24:40;;;;;;;20.75;16.88;;;21.90;99.90;;;;;;5028160;28;20025;-71
2021/11/10 06:27:07;;;;;;;19.48;17.30;;;21.80;99.90;;;;;;5046809;28;20108;-69
2021/11/10 06:29:34;;;;;;;29.50;17.58;;;21.70;99.90;;;;;;5049111;28;20127;-73
2021/11/10 06:32:01;;;;;;;23.00;17.98;;;21.60;99.90;;;;;;5029913;28;20211;-71
2021/11/10 06:34:29;;;;;;;22.30;17.85;;;21.50;99.90;;;;;;5038677;28;20447;-69
2021/11/10 06:36:56;;;;;;;23.33;19.77;;;21.50;99.90;;;;;;5024290;28;20107;-69
2021/11/10 06:39:23;;;;;;;21.20;16.55;;;21.30;99.90;;;;;;5047849;28;20084;-73
2021/11/10 06:41:50;;;;;;;22.48;17.23;;;21.30;99.90;;;;;;5038819;28;20642;-69
2021/11/10 06:44:17;;;;;;;21.17;18.10;;;21.40;99.90;;;;;;5043807;28;20044;-69
2021/11/10 06:46:44;;;;;;;23.52;16.52;;;21.40;99.90;;;;;;5044867;28;20771;-71
2021/11/10 06:49:11;;;;;;;22.77;18.30;;;21.40;99.90;;;;;;5041180;28;20029;-69
2021/11/10 06:51:39;;;;;;;18.73;16.63;;;21.40;99.90;;;;;;5043098;28;20597;-74
2021/11/10 06:54:07;;;;;;;22.02;17.45;;;21.30;99.90;;;;;;5086676;22;20145;-69
2021/11/10 06:56:35;;;;;;;18.90;15.55;;;21.20;99.90;;;;;;5046819;28;20043;-68
2021/11/10 06:59:03;;;;;;;21.60;17.13;;;21.10;99.90;;;;;;5064318;28;20020;-75
2021/11/10 07:01:30;;;;;;;27.85;16.42;;;21.10;99.90;;;;;;5064293;28;20084;-69
2021/11/10 07:03:57;;;;;;;19.42;15.30;;;21.10;99.90;;;;;;5043945;28;20151;-68
2021/11/10 07:06:24;;;;;;;19.70;14.60;;;21.10;99.90;;;;;;5062574;28;20032;-69
2021/11/10 07:08:51;;;;;;;19.35;15.18;;;21.00;99.90;;;;;;5062300;28;20027;-70
2021/11/10 07:11:18;;;;;;;24.40;15.68;;;20.90;99.90;;;;;;5062752;28;20104;-69
2021/11/10 07:13:46;;;;;;;19.08;15.63;;;20.80;99.90;;;;;;5064629;28;20028;-70
2021/11/10 07:16:14;;;;;;;16.88;14.63;;;20.90;99.90;;;;;;5062709;28;20129;-71
2021/11/10 07:18:42;;;;;;;17.00;14.43;;;20.80;99.90;;;;;;5062097;28;20474;-69
2021/11/10 07:21:09;;;;;;;15.13;13.40;;;21.00;99.90;;;;;;5044972;28;20398;-69
2021/11/10 07:23:36;;;;;;;21.58;14.05;;;21.20;99.90;;;;;;5061152;28;20040;-72
2021/11/10 07:26:04;;;;;;;18.42;14.00;;;21.10;99.90;;;;;;5064223;28;20313;-71
2021/11/10 07:28:32;;;;;;;19.30;13.95;;;21.00;99.90;;;;;;5066504;28;20017;-72
2021/11/10 07:30:59;;;;;;;18.38;14.52;;;20.90;99.90;;;;;;5064261;28;20020;-70
2021/11/10 07:33:26;;;;;;;15.63;13.02;;;21.10;99.90;;;;;;5063936;28;20528;-68
2021/11/10 07:35:53;;;;;;;17.58;12.93;;;21.10;99.90;;;;;;5046448;28;20047;-68
2021/11/10 07:38:24;;;;;;;20.95;14.77;;;21.10;99.90;;;;;;5063514;28;20024;-68
2021/11/10 07:40:53;;;;;;;18.77;12.63;;;21.10;99.90;;;;;;5065307;28;20062;-71
2021/11/10 07:43:23;;;;;;;14.40;12.45;;;21.10;99.90;;;;;;5062106;28;20078;-70
2021/11/10 07:46:01;;;;;;;19.55;13.70;;;21.00;99.90;;;;;;5064838;28;20522;-68
2021/11/10 07:48:29;;;;;;;14.52;12.10;;;20.90;99.90;;;;;;5060321;28;20086;-70
2021/11/10 07:50:56;;;;;;;23.70;18.92;;;20.80;99.90;;;;;;5063460;28;20150;-66
2021/11/10 07:53:23;;;;;;;23.35;18.45;;;20.80;99.90;;;;;;5062764;28;20173;-68
2021/11/10 07:55:50;;;;;;;25.67;16.45;;;20.70;99.90;;;;;;5045372;28;20563;-69
2021/11/10 07:58:20;;;;;;;18.10;13.13;;;20.70;99.90;;;;;;5060693;28;20076;-70
2021/11/10 08:00:47;;;;;;;16.90;13.60;;;20.60;99.90;;;;;;5057942;28;20028;-69
2021/11/10 08:03:14;;;;;;;14.13;12.50;;;20.60;99.90;;;;;;5060953;28;20025;-71
2021/11/10 08:05:41;;;;;;;17.33;12.23;;;20.70;99.90;;;;;;5060242;28;20158;-70
2021/11/10 08:08:08;;;;;;;16.92;12.38;;;20.70;99.90;;;;;;5062645;28;20032;-67
2021/11/10 08:10:35;;;;;;;18.33;13.15;;;20.70;99.90;;;;;;5061333;28;20462;-70
2021/11/10 08:13:03;;;;;;;16.23;12.57;;;20.60;99.90;;;;;;5059679;28;20199;-70
2021/11/10 08:15:30;;;;;;;16.58;12.60;;;20.60;99.90;;;;;;5062508;28;20020;-70
2021/11/10 08:17:57;;;;;;;17.10;12.63;;;20.60;99.90;;;;;;5057107;28;20078;-70
2021/11/10 08:20:24;;;;;;;15.23;12.90;;;20.60;99.90;;;;;;5059661;28;20028;-68
2021/11/10 08:22:51;;;;;;;14.63;11.80;;;20.50;99.90;;;;;;5060664;28;20090;-70
2021/11/10 08:25:19;;;;;;;17.20;12.23;;;20.50;99.90;;;;;;5060232;28;20032;-71
2021/11/10 08:27:47;;;;;;;14.73;12.25;;;20.40;99.90;;;;;;5060137;28;20028;-76
2021/11/10 08:30:19;;;;;;;15.32;11.93;;;20.40;99.90;;;;;;5060600;28;20081;-72
2021/11/10 08:32:47;;;;;;;15.70;12.23;;;20.20;99.90;;;;;;5056660;28;20602;-72
2021/11/10 08:35:15;;;;;;;13.75;11.73;;;20.20;99.90;;;;;;5053324;28;20490;-74
2021/11/10 08:37:42;;;;;;;13.48;11.45;;;20.10;99.90;;;;;;5060422;28;20086;-71
2021/11/10 08:40:11;;;;;;;15.55;11.77;;;20.10;99.90;;;;;;5043075;28;20434;-71
2021/11/10 08:42:39;;;;;;;13.88;11.65;;;20.10;99.90;;;;;;5055845;28;20039;-70
2021/11/10 08:45:08;;;;;;;14.45;11.40;;;20.00;99.90;;;;;;5060537;28;20379;-72
2021/11/10 08:47:36;;;;;;;20.10;13.82;;;19.90;99.90;;;;;;5059767;28;20024;-75
2021/11/10 08:50:07;;;;;;;22.10;13.95;;;19.90;99.90;;;;;;5060236;28;20131;-69
2021/11/10 08:52:36;;;;;;;17.10;13.68;;;19.80;99.90;;;;;;5061357;28;20025;-66
2021/11/10 08:55:09;;;;;;;17.20;13.38;;;20.00;99.90;;;;;;5060415;28;20052;-69
2021/11/10 08:57:38;;;;;;;14.27;12.55;;;20.00;99.90;;;;;;5060644;28;20040;-68
2021/11/10 09:00:09;;;;;;;18.70;14.77;;;20.10;99.90;;;;;;5041406;28;20040;-69
2021/11/10 09:02:36;;;;;;;18.48;15.15;;;19.90;99.90;;;;;;5059852;28;20029;-68
2021/11/10 09:05:08;;;;;;;19.55;14.65;;;19.90;99.90;;;;;;5057261;28;20375;-66
2021/11/10 09:07:35;;;;;;;20.50;14.97;;;19.90;99.90;;;;;;5058885;28;20020;-65
2021/11/10 09:10:08;;;;;;;21.90;14.70;;;20.00;99.90;;;;;;5058939;28;20261;-69
2021/11/10 09:12:35;;;;;;;21.00;14.70;;;20.00;99.90;;;;;;5045003;28;20048;-74
2021/11/10 09:15:03;;;;;;;22.63;15.60;;;19.90;99.90;;;;;;5060302;28;20063;-68
2021/11/10 09:17:34;;;;;;;18.95;14.27;;;19.80;99.90;;;;;;5061082;28;20025;-70
2021/11/10 09:20:10;;;;;;;26.55;15.10;;;19.60;99.90;;;;;;5057808;28;20119;-69
2021/11/10 09:22:38;;;;;;;20.63;13.93;;;19.70;99.90;;;;;;5060740;28;20638;-69
2021/11/10 09:25:08;;;;;;;22.48;13.38;;;19.70;99.90;;;;;;5060406;28;20157;-75
2021/11/10 09:27:36;;;;;;;20.60;12.85;;;19.70;99.90;;;;;;5042551;28;20418;-68
2021/11/10 09:30:06;;;;;;;18.88;12.55;;;19.80;99.90;;;;;;5060737;28;20468;-68
2021/11/10 09:32:33;;;;;;;17.45;11.73;;;19.80;99.90;;;;;;5060659;28;20043;-68
2021/11/10 09:35:00;;;;;;;16.52;11.77;;;19.80;99.90;;;;;;5058980;28;20512;-71
2021/11/10 09:37:28;;;;;;;20.15;14.63;;;19.80;99.90;;;;;;5061784;28;20031;-75
2021/11/10 09:39:55;;;;;;;16.17;13.48;;;19.90;99.90;;;;;;5041930;28;20032;-70
2021/11/10 09:42:25;;;;;;;21.92;13.55;;;19.80;99.90;;;;;;5040363;28;20039;-73
2021/11/10 09:44:54;;;;;;;15.18;11.82;;;19.70;99.90;;;;;;5063020;28;20088;-71
2021/11/10 09:47:22;;;;;;;16.27;13.20;;;19.70;99.90;;;;;;5059577;28;20024;-68
2021/11/10 09:49:51;;;;;;;17.73;12.27;;;19.80;99.90;;;;;;5062713;28;20028;-70
2021/11/10 09:52:19;;;;;;;16.02;12.52;;;19.70;99.90;;;;;;5063284;28;20028;-68
2021/11/10 09:54:47;;;;;;;17.52;11.93;;;19.70;99.90;;;;;;5062649;28;20052;-68
2021/11/10 09:57:16;;;;;;;15.80;12.52;;;19.70;99.90;;;;;;5061530;28;20028;-74
2021/11/10 09:59:43;;;;;;;17.35;12.75;;;19.70;99.90;;;;;;5061965;28;20032;-69
2021/11/10 10:02:12;;;;;;;14.98;11.77;;;19.60;99.90;;;;;;5061893;28;20029;-69
2021/11/10 10:04:43;;;;;;;19.73;13.25;;;19.60;99.90;;;;;;5062755;28;20021;-73
2021/11/10 10:07:11;;;;;;;18.35;11.65;;;19.60;99.90;;;;;;5061942;28;20028;-66
2021/11/10 10:09:39;;;;;;;14.40;10.70;;;19.60;99.90;;;;;;5063090;28;20060;-67
2021/11/10 10:12:07;;;;;;;12.85;9.75;;;19.60;99.90;;;;;;5063885;28;20715;-73
2021/11/10 10:14:35;;;;;;;14.00;9.82;;;19.60;99.90;;;;;;5063542;28;20024;-73
2021/11/10 10:17:07;;;;;;;12.68;9.63;;;19.60;99.90;;;;;;5065168;28;20029;-74
2021/11/10 10:19:40;;;;;;;14.18;9.10;;;19.50;99.90;;;;;;5064598;28;20020;-74
2021/11/10 10:22:08;;;;;;;20.27;9.43;;;19.30;99.90;;;;;;5065330;28;20037;-68
2021/11/10 10:24:54;;;;;;;11.05;8.38;;;19.30;99.90;;;;;;5063268;28;20428;-74
2021/11/10 10:27:33;;;;;;;12.48;8.52;;;19.30;99.90;;;;;;5066541;28;20060;-72
2021/11/10 10:30:37;;;;;;;10.55;8.00;;;19.30;99.90;;;;;;5065998;28;20579;-68
2021/11/10 10:33:11;;;;;;;14.27;8.40;;;19.30;99.90;;;;;;5047840;28;20040;-67
2021/11/10 10:35:47;;;;;;;11.40;9.02;;;19.20;99.90;;;;;;5066746;28;20528;-68
2021/11/10 10:38:18;;;;;;;13.35;8.55;;;19.20;99.90;;;;;;5065448;28;20108;-69
2021/11/10 10:40:48;;;;;;;12.70;9.02;;;19.20;99.90;;;;;;5066666;28;20028;-71
2021/11/10 10:43:16;;;;;;;18.13;8.90;;;19.20;99.90;;;;;;5062023;28;20025;-68
2021/11/10 10:45:46;;;;;;;12.30;8.85;;;19.20;99.90;;;;;;5065976;28;20433;-73
2021/11/10 10:48:34;;;;;;;12.27;8.77;;;19.10;99.90;;;;;;5045300;28;20434;-69
2021/11/10 10:51:08;;;;;;;15.80;9.32;;;19.10;99.90;;;;;;5065650;28;20139;-69
2021/11/10 10:53:53;;;;;;;13.35;9.95;;;19.10;99.90;;;;;;5048642;28;20479;-70
2021/11/10 10:56:38;;;;;;;11.88;9.32;;;19.10;99.90;;;;;;5064829;28;20032;-69
2021/11/10 10:59:13;;;;;;;11.07;9.02;;;19.10;99.90;;;;;;5063521;28;20032;-70
2021/11/10 11:01:50;;;;;;;17.52;8.23;;;19.10;99.90;;;;;;5066754;28;20161;-73
2021/11/10 11:04:22;;;;;;;10.23;6.82;;;19.10;99.90;;;;;;5065567;28;20021;-67
2021/11/10 11:06:57;;;;;;;8.85;6.60;;;19.10;99.90;;;;;;5067378;28;20031;-68
2021/11/10 11:09:28;;;;;;;8.68;6.15;;;19.10;99.90;;;;;;5066297;28;20457;-70
2021/11/10 11:12:16;;;;;;;8.38;6.05;;;19.10;99.90;;;;;;5065664;28;20021;-75
2021/11/10 11:14:51;;;;;;;6.93;6.20;;;19.10;99.90;;;;;;5065133;28;20106;-66
2021/11/10 11:17:32;;;;;;;6.55;5.80;;;19.10;99.90;;;;;;5065819;28;20647;-67
2021/11/10 11:19:59;;;;;;;7.47;6.13;;;19.10;99.90;;;;;;5065225;28;20027;-67
2021/11/10 11:22:29;;;;;;;6.25;5.07;;;19.00;99.90;;;;;;5065356;28;20032;-66
2021/11/10 11:24:57;;;;;;;8.27;4.82;;;19.00;99.90;;;;;;5062585;28;20029;-66
2021/11/10 11:27:28;;;;;;;5.50;4.60;;;19.10;99.90;;;;;;5065526;28;20123;-69
2021/11/10 11:30:17;;;;;;;9.82;5.78;;;19.10;99.90;;;;;;5047319;28;20037;-74
2021/11/10 11:32:55;;;;;;;11.98;5.38;;;19.10;99.90;;;;;;5065422;28;20078;-66
2021/11/10 11:35:41;;;;;;;8.20;5.97;;;19.10;99.90;;;;;;5062989;28;20442;-67
2021/11/10 11:38:11;;;;;;;9.07;5.82;;;19.10;99.90;;;;;;5065814;28;20111;-70
2021/11/10 11:40:39;;;;;;;8.55;5.95;;;19.10;99.90;;;;;;5065607;28;20047;-67
2021/11/10 11:43:11;;;;;;;8.07;5.82;;;19.10;99.90;;;;;;5063418;28;20257;-67
2021/11/10 11:45:41;;;;;;;6.80;4.53;;;19.10;99.90;;;;;;5063758;28;20453;-70
2021/11/10 11:48:09;;;;;;;5.68;4.95;;;19.00;99.90;;;;;;5064725;28;20394;-67
2021/11/10 11:50:37;;;;;;;6.20;4.53;;;19.10;99.90;;;;;;5063706;28;20390;-67
2021/11/10 11:53:04;;;;;;;5.40;3.83;;;19.00;99.90;;;;;;5064583;28;20269;-68
2021/11/10 11:55:45;;;;;;;8.25;4.15;;;19.00;99.90;;;;;;5065007;28;20415;-67
2021/11/10 11:58:22;;;;;;;3.55;3.25;;;19.00;99.90;;;;;;5065077;28;20038;-70
2021/11/10 12:01:11;;;;;;;5.25;3.55;;;19.00;99.90;;;;;;5065353;28;20029;-75
2021/11/10 12:03:41;;;;;;;5.45;3.67;;;19.00;99.90;;;;;;5065882;28;20078;-67
2021/11/10 12:06:08;;;;;;;10.27;3.92;;;19.00;99.90;;;;;;5065327;28;20297;-67
2021/11/10 12:08:50;;;;;;;9.88;3.85;;;19.00;99.90;;;;;;5065369;28;20483;-67
2021/11/10 12:11:20;;;;;;;6.97;3.80;;;19.00;99.90;;;;;;5062988;28;20081;-75
2021/11/10 12:14:15;;;;;;;6.03;3.58;;;19.00;99.90;;;;;;5065177;28;20538;-72
2021/11/10 12:17:05;;;;;;;4.07;3.28;;;19.00;99.90;;;;;;5063623;28;20033;-67
2021/11/10 12:19:34;;;;;;;6.40;3.30;;;19.10;99.90;;;;;;5064964;28;20029;-67
2021/11/10 12:22:05;;;;;;;4.53;3.10;;;19.00;99.90;;;;;;5063031;28;20029;-74
2021/11/10 12:24:58;;;;;;;4.25;3.03;;;19.00;99.90;;;;;;5061450;28;20070;-65
2021/11/10 12:27:40;;;;;;;;;;;19.00;99.90;;;;;;5063981;28;20024;-66
2021/11/10 12:30:28;;;;;;;6.10;4.63;;;19.10;99.90;;;;;;5064364;28;20314;-66
2021/11/10 12:32:58;;;;;;;9.32;6.68;;;19.00;99.90;;;;;;5065381;28;20029;-67
2021/11/10 12:35:47;;;;;;;14.68;5.60;;;19.00;99.90;;;;;;5064806;28;20016;-67
2021/11/10 12:38:20;;;;;;;8.90;5.22;;;19.00;99.90;;;;;;5064059;28;20482;-70
2021/11/10 12:41:06;;;;;;;8.10;5.03;;;19.00;99.90;;;;;;5065517;28;20105;-67
2021/11/10 12:43:44;;;;;;;8.77;5.50;;;19.00;99.90;;;;;;5061690;28;20134;-67